createdAt,value
2018-04-01T00:01:58.691Z,1.60
2018-04-01T00:04:26.454Z,1.60
2018-04-01T00:06:54.241Z,1.70
2018-04-01T00:09:21.257Z,1.70
2018-04-01T00:11:48.279Z,1.70
2018-04-01T00:14:15.308Z,1.60
2018-04-01T00:16:42.306Z,1.60
2018-04-01T00:19:09.320Z,1.60
2018-04-01T00:21:36.322Z,1.60
2018-04-01T00:24:03.330Z,1.70
2018-04-01T00:26:30.350Z,1.70
2018-04-01T00:28:57.355Z,1.70
2018-04-01T00:31:24.399Z,1.70
2018-04-01T00:33:51.417Z,1.60
2018-04-01T00:36:18.411Z,1.60
2018-04-01T00:38:45.453Z,1.50
2018-04-01T00:41:12.453Z,1.50
2018-04-01T00:43:39.467Z,1.50
2018-04-01T00:46:06.481Z,1.50
2018-04-01T00:48:33.492Z,1.60
2018-04-01T00:51:00.513Z,1.60
2018-04-01T00:53:27.524Z,1.60
2018-04-01T00:55:54.577Z,1.60
2018-04-01T00:58:21.575Z,1.60
2018-04-01T01:00:48.617Z,1.70
2018-04-01T01:03:15.651Z,1.70
2018-04-01T01:05:42.645Z,1.70
2018-04-01T01:08:09.668Z,1.70
2018-04-01T01:10:36.659Z,1.80
2018-04-01T01:13:03.679Z,1.80
2018-04-01T01:15:31.470Z,1.80
2018-04-01T01:17:58.507Z,1.80
2018-04-01T01:20:25.485Z,1.90
2018-04-01T01:22:52.480Z,1.90
2018-04-01T01:25:19.516Z,1.90
2018-04-01T01:27:46.546Z,1.80
2018-04-01T01:30:13.548Z,1.80
2018-04-01T01:32:41.330Z,1.70
2018-04-01T01:35:08.350Z,1.60
2018-04-01T01:37:35.382Z,1.60
2018-04-01T01:40:02.366Z,1.60
2018-04-01T01:42:30.164Z,1.60
2018-04-01T01:44:57.172Z,1.60
2018-04-01T01:47:24.168Z,1.60
2018-04-01T01:49:51.185Z,1.70
2018-04-01T01:52:18.215Z,1.70
2018-04-01T01:54:45.284Z,1.70
2018-04-01T01:57:12.289Z,1.70
2018-04-01T01:59:39.297Z,1.70
2018-04-01T02:02:06.311Z,1.70
2018-04-01T02:04:33.330Z,1.60
2018-04-01T02:07:00.367Z,1.60
2018-04-01T02:09:28.142Z,1.60
2018-04-01T02:11:57.023Z,1.50
2018-04-01T02:14:24.024Z,1.50
2018-04-01T02:16:51.039Z,1.50
2018-04-01T02:19:18.815Z,1.50
2018-04-01T02:21:45.817Z,1.50
2018-04-01T02:24:12.867Z,1.60
2018-04-01T02:26:39.867Z,1.60
2018-04-01T02:29:06.903Z,1.60
2018-04-01T02:31:34.734Z,1.60
2018-04-01T02:34:01.727Z,1.60
2018-04-01T02:36:28.765Z,1.60
2018-04-01T02:38:55.753Z,1.50
2018-04-01T02:41:22.764Z,1.50
2018-04-01T02:43:49.758Z,1.60
2018-04-01T02:46:16.790Z,1.70
2018-04-01T02:48:43.808Z,1.70
2018-04-01T02:51:10.814Z,1.70
2018-04-01T02:53:37.834Z,1.70
2018-04-01T02:56:05.602Z,1.80
2018-04-01T02:58:32.628Z,1.80
2018-04-01T03:00:59.658Z,1.80
2018-04-01T03:03:26.684Z,1.90
2018-04-01T03:05:53.710Z,1.80
2018-04-01T03:08:20.704Z,1.90
2018-04-01T03:10:47.731Z,1.90
2018-04-01T03:13:14.749Z,1.90
2018-04-01T03:15:41.740Z,1.90
2018-04-01T03:18:08.762Z,1.90
2018-04-01T03:20:35.761Z,1.90
2018-04-01T03:23:02.786Z,1.80
2018-04-01T03:25:30.564Z,1.90
2018-04-01T03:27:57.568Z,1.80
2018-04-01T03:30:24.605Z,1.80
2018-04-01T03:32:51.627Z,1.90
2018-04-01T03:35:18.628Z,1.90
2018-04-01T03:37:45.653Z,1.90
2018-04-01T03:40:12.651Z,1.90
2018-04-01T03:42:39.693Z,1.90
2018-04-01T03:45:06.704Z,1.90
2018-04-01T03:47:33.707Z,1.90
2018-04-01T03:50:01.484Z,2.00
2018-04-01T03:52:28.503Z,2.00
2018-04-01T03:54:55.529Z,2.00
2018-04-01T03:57:22.529Z,2.00
2018-04-01T03:59:49.528Z,2.00
2018-04-01T04:02:16.561Z,2.00
2018-04-01T04:04:43.576Z,2.10
2018-04-01T04:07:10.620Z,2.10
2018-04-01T04:09:37.629Z,2.10
2018-04-01T04:12:04.632Z,2.00
2018-04-01T04:14:31.649Z,2.00
2018-04-01T04:16:58.643Z,2.00
2018-04-01T04:19:25.651Z,2.00
2018-04-01T04:21:53.428Z,2.00
2018-04-01T04:24:20.422Z,2.00
2018-04-01T04:26:47.466Z,2.00
2018-04-01T04:29:14.458Z,2.00
2018-04-01T04:31:41.483Z,2.00
2018-04-01T04:34:08.506Z,2.10
2018-04-01T04:36:35.533Z,2.10
2018-04-01T04:39:02.544Z,2.20
2018-04-01T04:41:30.322Z,2.30
2018-04-01T04:43:57.346Z,2.30
2018-04-01T04:46:24.346Z,2.30
2018-04-01T04:48:51.366Z,2.20
2018-04-01T04:51:18.390Z,2.30
2018-04-01T04:53:45.378Z,2.30
2018-04-01T04:56:12.434Z,2.40
2018-04-01T04:58:39.424Z,2.40
2018-04-01T05:01:06.437Z,2.40
2018-04-01T05:03:33.452Z,2.40
2018-04-01T05:06:00.471Z,2.40
2018-04-01T05:08:27.502Z,2.40
2018-04-01T05:10:54.516Z,2.40
2018-04-01T05:13:21.544Z,2.40
2018-04-01T05:15:48.542Z,2.30
2018-04-01T05:18:16.304Z,2.40
2018-04-01T05:20:43.314Z,2.40
2018-04-01T05:23:10.342Z,2.40
2018-04-01T05:25:37.358Z,2.40
2018-04-01T05:28:04.361Z,2.40
2018-04-01T05:30:31.352Z,2.50
2018-04-01T05:32:59.136Z,2.50
2018-04-01T05:35:26.149Z,2.50
2018-04-01T05:37:53.174Z,2.50
2018-04-01T05:40:20.188Z,2.50
2018-04-01T05:42:47.205Z,2.60
2018-04-01T05:45:14.219Z,2.70
2018-04-01T05:47:41.220Z,2.70
2018-04-01T05:50:08.254Z,2.70
2018-04-01T05:52:35.260Z,2.70
2018-04-01T05:55:02.284Z,2.80
2018-04-01T05:57:29.308Z,2.80
2018-04-01T05:59:56.321Z,2.80
2018-04-01T06:02:23.322Z,2.90
2018-04-01T06:04:50.342Z,3.00
2018-04-01T06:07:17.334Z,3.00
2018-04-01T06:09:44.342Z,3.00
2018-04-01T06:12:11.349Z,3.00
2018-04-01T06:14:38.357Z,3.00
2018-04-01T06:17:05.371Z,3.10
2018-04-01T06:19:32.381Z,3.10
2018-04-01T06:21:59.381Z,3.20
2018-04-01T06:24:26.403Z,3.20
2018-04-01T06:26:53.413Z,3.30
2018-04-01T06:29:20.437Z,3.30
2018-04-01T06:31:47.456Z,3.30
2018-04-01T06:34:14.452Z,3.30
2018-04-01T06:36:41.500Z,3.30
2018-04-01T06:39:08.513Z,3.30
2018-04-01T06:41:35.528Z,3.30
2018-04-01T06:44:02.534Z,3.40
2018-04-01T06:46:30.314Z,3.40
2018-04-01T06:48:57.329Z,3.40
2018-04-01T06:51:24.324Z,3.40
2018-04-01T06:53:51.314Z,3.50
2018-04-01T06:56:18.324Z,3.60
2018-04-01T06:58:45.327Z,3.60
2018-04-01T07:01:12.339Z,3.60
2018-04-01T07:03:39.326Z,3.70
2018-04-01T07:06:06.327Z,3.70
2018-04-01T07:08:33.346Z,3.80
2018-04-01T07:11:00.368Z,3.80
2018-04-01T07:13:27.372Z,3.90
2018-04-01T07:15:54.382Z,3.80
2018-04-01T07:18:21.381Z,3.60
2018-04-01T07:20:48.399Z,3.60
2018-04-01T07:23:15.398Z,3.70
2018-04-01T07:25:42.418Z,3.80
2018-04-01T07:28:10.182Z,4.00
2018-04-01T07:30:37.213Z,4.00
2018-04-01T07:33:04.226Z,4.10
2018-04-01T07:35:31.236Z,4.20
2018-04-01T07:37:58.263Z,4.30
2018-04-01T07:40:25.283Z,4.30
2018-04-01T07:42:52.302Z,4.30
2018-04-01T07:45:20.079Z,4.30
2018-04-01T07:47:47.108Z,4.20
2018-04-01T07:50:14.131Z,4.30
2018-04-01T07:52:41.145Z,4.40
2018-04-01T07:55:08.177Z,4.50
2018-04-01T07:57:35.233Z,4.50
2018-04-01T08:00:03.004Z,4.60
2018-04-01T08:02:30.029Z,4.60
2018-04-01T08:04:57.048Z,4.60
2018-04-01T08:07:24.065Z,4.60
2018-04-01T08:09:51.127Z,4.70
2018-04-01T08:12:18.149Z,4.80
2018-04-01T08:14:45.155Z,4.90
2018-04-01T08:17:12.161Z,5.00
2018-04-01T08:19:39.930Z,5.10
2018-04-01T08:22:07.750Z,5.20
2018-04-01T08:24:35.107Z,5.10
2018-04-01T08:27:02.145Z,5.20
2018-04-01T08:29:29.134Z,5.00
2018-04-01T08:31:56.138Z,4.90
2018-04-01T08:34:23.166Z,4.90
2018-04-01T08:36:50.919Z,5.00
2018-04-01T08:39:17.930Z,5.00
2018-04-01T08:41:44.960Z,5.10
2018-04-01T08:44:11.978Z,5.20
2018-04-01T08:46:38.994Z,5.40
2018-04-01T08:49:05.990Z,5.50
2018-04-01T08:51:32.996Z,5.60
2018-04-01T08:54:00.020Z,5.80
2018-04-01T08:56:27.015Z,5.90
2018-04-01T08:58:54.042Z,6.20
2018-04-01T09:01:21.052Z,6.40
2018-04-01T09:03:48.118Z,6.50
2018-04-01T09:06:15.906Z,6.90
2018-04-01T09:08:42.900Z,6.90
2018-04-01T09:11:10.014Z,6.90
2018-04-01T09:13:37.008Z,6.80
2018-04-01T09:16:04.005Z,6.60
2018-04-01T09:18:31.021Z,6.60
2018-04-01T09:20:58.037Z,6.50
2018-04-01T09:23:25.056Z,6.50
2018-04-01T09:25:52.850Z,6.30
2018-04-01T09:28:19.852Z,6.30
2018-04-01T09:30:46.895Z,6.30
2018-04-01T09:33:13.982Z,6.30
2018-04-01T09:35:41.016Z,6.40
2018-04-01T09:38:08.019Z,6.60
2018-04-01T09:40:35.017Z,6.80
2018-04-01T09:43:02.053Z,7.00
2018-04-01T09:45:29.857Z,7.20
2018-04-01T09:47:56.876Z,7.10
2018-04-01T09:50:23.896Z,7.30
2018-04-01T09:52:50.903Z,7.40
2018-04-01T09:55:18.714Z,7.60
2018-04-01T09:57:45.715Z,7.60
2018-04-01T10:00:12.757Z,7.50
2018-04-01T10:02:40.258Z,7.50
2018-04-01T10:05:12.323Z,7.60
2018-04-01T10:07:39.831Z,7.70
2018-04-01T10:10:07.346Z,7.80
2018-04-01T10:12:35.761Z,7.80
2018-04-01T10:15:03.289Z,8.00
2018-04-01T10:17:31.557Z,8.00
2018-04-01T10:19:59.842Z,8.10
2018-04-01T10:22:27.341Z,8.10
2018-04-01T10:24:54.839Z,8.20
2018-04-01T10:27:22.376Z,8.20
2018-04-01T10:29:49.857Z,8.30
2018-04-01T10:32:17.368Z,8.50
2018-04-01T10:34:44.861Z,8.50
2018-04-01T10:37:12.350Z,8.50
2018-04-01T10:39:40.622Z,8.60
2018-04-01T10:42:08.125Z,8.60
2018-04-01T10:44:35.638Z,8.50
2018-04-01T10:47:03.121Z,8.50
2018-04-01T10:49:30.638Z,8.60
2018-04-01T10:51:58.912Z,8.60
2018-04-01T10:54:25.939Z,8.50
2018-04-01T10:56:53.726Z,8.70
2018-04-01T10:59:20.729Z,8.70
2018-04-01T11:01:47.755Z,8.90
2018-04-01T11:04:14.758Z,9.00
2018-04-01T11:06:41.778Z,9.00
2018-04-01T11:09:08.788Z,9.00
2018-04-01T11:11:35.787Z,9.00
2018-04-01T11:14:02.808Z,8.90
2018-04-01T11:16:29.807Z,9.00
2018-04-01T11:18:56.842Z,9.00
2018-04-01T11:21:23.849Z,9.20
2018-04-01T11:23:50.853Z,9.30
2018-04-01T11:26:17.866Z,9.20
2018-04-01T11:28:44.878Z,9.40
2018-04-01T11:31:11.902Z,9.50
2018-04-01T11:33:38.899Z,9.70
2018-04-01T11:36:05.912Z,9.90
2018-04-01T11:38:32.899Z,9.90
2018-04-01T11:40:59.906Z,10.00
2018-04-01T11:43:27.681Z,9.70
2018-04-01T11:45:54.687Z,9.70
2018-04-01T11:48:21.711Z,9.90
2018-04-01T11:50:48.745Z,9.80
2018-04-01T11:53:15.737Z,9.70
2018-04-01T11:55:42.846Z,9.70
2018-04-01T11:58:09.849Z,9.70
2018-04-01T12:00:36.922Z,9.60
2018-04-01T12:03:03.918Z,9.70
2018-04-01T12:05:30.942Z,9.70
2018-04-01T12:07:57.980Z,9.80
2018-04-01T12:10:24.978Z,9.90
2018-04-01T12:12:52.008Z,10.00
2018-04-01T12:15:19.015Z,10.10
2018-04-01T12:17:46.036Z,10.10
2018-04-01T12:20:13.038Z,10.10
2018-04-01T12:22:40.058Z,10.00
2018-04-01T12:25:07.065Z,10.10
2018-04-01T12:27:34.094Z,10.00
2018-04-01T12:30:01.096Z,10.30
2018-04-01T12:32:28.871Z,10.70
2018-04-01T12:34:56.673Z,11.10
2018-04-01T12:37:23.674Z,11.10
2018-04-01T12:39:50.688Z,11.60
2018-04-01T12:42:17.711Z,12.00
2018-04-01T12:44:44.713Z,12.40
2018-04-01T12:47:11.793Z,12.40
2018-04-01T12:49:38.771Z,12.70
2018-04-01T12:52:05.770Z,12.90
2018-04-01T12:54:32.804Z,13.00
2018-04-01T12:56:59.826Z,12.80
2018-04-01T12:59:26.873Z,12.60
2018-04-01T13:01:53.886Z,12.50
2018-04-01T13:04:20.885Z,12.20
2018-04-01T13:06:47.915Z,12.00
2018-04-01T13:09:15.708Z,11.60
2018-04-01T13:11:42.741Z,11.60
2018-04-01T13:14:10.511Z,11.60
2018-04-01T13:16:37.523Z,11.60
2018-04-01T13:19:04.544Z,11.80
2018-04-01T13:21:31.557Z,11.80
2018-04-01T13:23:59.372Z,11.60
2018-04-01T13:26:26.383Z,11.60
2018-04-01T13:28:53.411Z,11.40
2018-04-01T13:31:20.421Z,11.40
2018-04-01T13:33:47.426Z,11.30
2018-04-01T13:36:15.224Z,11.10
2018-04-01T13:38:42.231Z,11.10
2018-04-01T13:41:09.274Z,11.00
2018-04-01T13:43:36.381Z,11.00
2018-04-01T13:46:03.379Z,10.80
2018-04-01T13:48:30.401Z,10.80
2018-04-01T13:50:57.403Z,10.80
2018-04-01T13:53:24.464Z,10.80
2018-04-01T13:55:51.470Z,10.70
2018-04-01T13:58:18.482Z,10.50
2018-04-01T14:00:46.270Z,10.40
2018-04-01T14:03:13.317Z,10.40
2018-04-01T14:05:40.351Z,10.40
2018-04-01T14:08:07.366Z,10.40
2018-04-01T14:10:34.400Z,10.40
2018-04-01T14:13:01.406Z,10.20
2018-04-01T14:15:28.426Z,10.10
2018-04-01T14:17:55.455Z,9.90
2018-04-01T14:20:23.230Z,9.70
2018-04-01T14:22:50.278Z,9.70
2018-04-01T14:25:17.278Z,9.70
2018-04-01T14:27:45.105Z,9.40
2018-04-01T14:30:12.081Z,9.30
2018-04-01T14:32:39.093Z,9.10
2018-04-01T14:35:06.140Z,9.10
2018-04-01T14:37:33.150Z,9.00
2018-04-01T14:40:00.178Z,8.90
2018-04-01T14:42:27.201Z,8.80
2018-04-01T14:44:54.201Z,8.80
2018-04-01T14:47:21.226Z,8.80
2018-04-01T14:49:48.254Z,8.80
2018-04-01T14:52:15.264Z,8.80
2018-04-01T14:54:43.060Z,8.70
2018-04-01T14:57:10.127Z,8.70
2018-04-01T14:59:37.159Z,8.70
2018-04-01T15:02:04.170Z,8.60
2018-04-01T15:04:31.203Z,8.60
2018-04-01T15:06:58.225Z,8.70
2018-04-01T15:09:25.243Z,8.70
2018-04-01T15:11:52.284Z,8.60
2018-04-01T15:14:19.419Z,8.50
2018-04-01T15:16:46.313Z,8.40
2018-04-01T15:19:14.093Z,8.40
2018-04-01T15:21:41.105Z,8.40
2018-04-01T15:24:08.156Z,8.40
2018-04-01T15:26:35.153Z,8.40
2018-04-01T15:29:02.163Z,8.20
2018-04-01T15:31:29.174Z,8.20
2018-04-01T15:33:56.220Z,8.20
2018-04-01T15:36:23.276Z,8.30
2018-04-01T15:38:50.299Z,8.30
2018-04-01T15:41:18.075Z,8.40
2018-04-01T15:43:45.860Z,8.30
2018-04-01T15:46:12.863Z,8.30
2018-04-01T15:48:39.880Z,8.30
2018-04-01T15:51:07.646Z,8.30
2018-04-01T15:53:34.652Z,8.20
2018-04-01T15:56:01.720Z,8.10
2018-04-01T15:58:29.480Z,8.20
2018-04-01T16:00:57.278Z,8.20
2018-04-01T16:03:24.312Z,8.20
2018-04-01T16:05:51.345Z,8.20
2018-04-01T16:08:18.354Z,8.20
2018-04-01T16:10:45.362Z,8.40
2018-04-01T16:13:13.156Z,8.30
2018-04-01T16:15:40.166Z,8.30
2018-04-01T16:18:07.201Z,8.30
2018-04-01T16:20:34.227Z,8.30
2018-04-01T16:23:01.254Z,8.30
2018-04-01T16:25:28.258Z,8.30
2018-04-01T16:27:55.297Z,8.20
2018-04-01T16:30:22.328Z,8.10
2018-04-01T16:32:49.382Z,8.00
2018-04-01T16:35:16.414Z,7.90
2018-04-01T16:37:43.415Z,7.90
2018-04-01T16:40:10.439Z,7.90
2018-04-01T16:42:37.449Z,7.90
2018-04-01T16:45:05.203Z,7.90
2018-04-01T16:47:32.226Z,7.80
2018-04-01T16:49:59.230Z,7.80
2018-04-01T16:52:27.041Z,7.70
2018-04-01T16:54:54.045Z,7.70
2018-04-01T16:57:21.835Z,7.70
2018-04-01T16:59:48.830Z,7.60
2018-04-01T17:02:16.598Z,7.40
2018-04-01T17:04:43.624Z,7.40
2018-04-01T17:07:10.633Z,7.30
2018-04-01T17:09:38.479Z,7.20
2018-04-01T17:12:05.451Z,7.20
2018-04-01T17:14:33.239Z,7.10
2018-04-01T17:17:00.277Z,7.10
2018-04-01T17:19:27.290Z,7.00
2018-04-01T17:21:54.324Z,6.90
2018-04-01T17:24:21.328Z,6.90
2018-04-01T17:26:49.240Z,6.80
2018-04-01T17:29:16.238Z,6.80
2018-04-01T17:31:43.260Z,6.70
2018-04-01T17:34:10.279Z,6.60
2018-04-01T17:36:37.310Z,6.50
2018-04-01T17:39:05.075Z,6.30
2018-04-01T17:41:32.090Z,6.20
2018-04-01T17:43:59.120Z,6.10
2018-04-01T17:46:26.127Z,6.10
2018-04-01T17:48:53.928Z,6.00
2018-04-01T17:51:20.924Z,6.00
2018-04-01T17:53:47.919Z,6.00
2018-04-01T17:56:15.024Z,5.90
2018-04-01T17:58:42.030Z,5.90
2018-04-01T18:01:09.031Z,5.80
2018-04-01T18:03:36.086Z,5.80
2018-04-01T18:06:03.099Z,5.70
2018-04-01T18:08:30.111Z,5.70
2018-04-01T18:10:57.102Z,5.60
2018-04-01T18:13:24.113Z,5.60
2018-04-01T18:15:51.112Z,5.50
2018-04-01T18:18:18.280Z,5.50
2018-04-01T18:20:45.266Z,5.50
2018-04-01T18:23:12.273Z,5.50
2018-04-01T18:25:39.289Z,5.40
2018-04-01T18:28:07.048Z,5.40
2018-04-01T18:30:34.074Z,5.40
2018-04-01T18:33:01.081Z,5.40
2018-04-01T18:35:28.077Z,5.30
2018-04-01T18:37:55.082Z,5.20
2018-04-01T18:40:22.087Z,5.20
2018-04-01T18:42:49.122Z,5.20
2018-04-01T18:45:16.127Z,5.10
2018-04-01T18:47:43.168Z,5.10
2018-04-01T18:50:10.152Z,5.00
2018-04-01T18:52:37.158Z,4.90
2018-04-01T18:55:04.154Z,4.90
2018-04-01T18:57:31.162Z,4.80
2018-04-01T18:59:58.154Z,4.70
2018-04-01T19:02:25.177Z,4.60
2018-04-01T19:04:52.177Z,4.70
2018-04-01T19:07:19.178Z,4.70
2018-04-01T19:09:46.981Z,4.60
2018-04-01T19:12:13.978Z,4.60
2018-04-01T19:14:41.016Z,4.50
2018-04-01T19:17:08.533Z,4.40
2018-04-01T19:19:36.769Z,4.20
2018-04-01T19:22:04.308Z,4.20
2018-04-01T19:24:31.790Z,4.10
2018-04-01T19:26:59.308Z,4.20
2018-04-01T19:29:26.798Z,4.10
2018-04-01T19:31:54.338Z,4.20
2018-04-01T19:34:21.852Z,4.20
2018-04-01T19:36:49.354Z,4.20
2018-04-01T19:39:16.871Z,4.10
2018-04-01T19:41:44.354Z,4.10
2018-04-01T19:44:11.855Z,3.90
2018-04-01T19:46:39.378Z,3.90
2018-04-01T19:49:06.872Z,3.80
2018-04-01T19:51:34.414Z,3.80
2018-04-01T19:54:02.663Z,3.80
2018-04-01T19:56:30.161Z,3.80
2018-04-01T19:58:57.675Z,3.80
2018-04-01T20:01:25.162Z,3.80
2018-04-01T20:03:52.676Z,3.80
2018-04-01T20:06:20.158Z,3.70
2018-04-01T20:08:47.652Z,3.60
2018-04-01T20:11:15.175Z,3.60
2018-04-01T20:13:42.662Z,3.60
2018-04-01T20:16:10.193Z,3.60
2018-04-01T20:18:37.687Z,3.50
2018-04-01T20:21:05.196Z,3.50
2018-04-01T20:23:33.477Z,3.40
2018-04-01T20:26:01.753Z,3.40
2018-04-01T20:28:30.023Z,3.30
2018-04-01T20:30:57.530Z,3.30
2018-04-01T20:35:55.815Z,3.30
2018-04-01T20:38:23.311Z,3.30
2018-04-01T20:40:50.832Z,3.30
2018-04-01T20:43:18.330Z,3.30
2018-04-01T20:45:45.852Z,3.20
2018-04-01T20:48:13.356Z,3.20
2018-04-01T20:50:40.843Z,3.10
2018-04-01T20:53:08.382Z,3.10
2018-04-01T20:55:35.896Z,3.10
2018-04-01T20:58:03.406Z,3.10
2018-04-01T21:00:30.923Z,3.10
2018-04-01T21:02:58.433Z,3.10
2018-04-01T21:05:25.953Z,3.00
2018-04-01T21:07:53.466Z,3.00
2018-04-01T21:10:20.949Z,3.00
2018-04-01T21:12:48.458Z,3.00
2018-04-01T21:15:15.946Z,2.90
2018-04-01T21:17:43.447Z,2.80
2018-04-01T21:20:10.968Z,2.80
2018-04-01T21:22:38.463Z,2.70
2018-04-01T21:25:05.987Z,2.60
2018-04-01T21:27:33.467Z,2.60
2018-04-01T21:30:00.959Z,2.60
2018-04-01T21:32:28.463Z,2.60
2018-04-01T21:34:55.988Z,2.60
2018-04-01T21:37:23.485Z,2.70
2018-04-01T21:39:50.986Z,2.60
2018-04-01T21:42:18.494Z,2.50
2018-04-01T21:44:46.003Z,2.50
2018-04-01T21:47:13.524Z,2.40
2018-04-01T21:49:41.015Z,2.40
2018-04-01T21:52:08.505Z,2.30
2018-04-01T21:54:37.140Z,2.30
2018-04-01T21:57:04.650Z,2.30
2018-04-01T21:59:32.135Z,2.30
2018-04-01T22:01:59.671Z,2.30
2018-04-01T22:04:27.196Z,2.30
2018-04-01T22:06:54.688Z,2.30
2018-04-01T22:09:22.204Z,2.40
2018-04-01T22:11:49.699Z,2.50
2018-04-01T22:14:17.187Z,2.50
2018-04-01T22:16:44.722Z,2.50
2018-04-01T22:19:12.245Z,2.50
2018-04-01T22:21:39.807Z,2.40
2018-04-01T22:24:07.325Z,2.40
2018-04-01T22:26:34.833Z,2.40
2018-04-01T22:29:02.343Z,2.40
2018-04-01T22:31:29.839Z,2.40
2018-04-01T22:33:57.330Z,2.60
2018-04-01T22:36:24.858Z,2.70
2018-04-01T22:38:52.342Z,2.70
2018-04-01T22:41:19.858Z,2.70
2018-04-01T22:43:47.356Z,2.80
2018-04-01T22:46:15.620Z,2.90
2018-04-01T22:48:43.136Z,2.90
2018-04-01T22:51:10.620Z,2.80
2018-04-01T22:53:38.148Z,2.70
2018-04-01T22:56:05.658Z,2.60
2018-04-01T22:58:33.170Z,2.60
2018-04-01T23:01:00.745Z,2.50
2018-04-01T23:03:28.975Z,2.50
2018-04-01T23:05:56.472Z,2.40
2018-04-01T23:08:24.000Z,2.40
2018-04-01T23:10:51.517Z,2.30
2018-04-01T23:13:19.012Z,2.20
2018-04-01T23:15:46.540Z,2.20
2018-04-01T23:18:14.075Z,2.10
2018-04-01T23:20:41.600Z,2.20
2018-04-01T23:23:09.148Z,2.20
2018-04-01T23:25:37.420Z,2.00
2018-04-01T23:28:05.681Z,2.00
2018-04-01T23:30:33.653Z,1.90
2018-04-01T23:33:01.133Z,1.90
2018-04-01T23:35:29.397Z,1.90
2018-04-01T23:37:56.920Z,1.80
2018-04-01T23:40:24.426Z,1.80
2018-04-01T23:42:51.936Z,1.80
2018-04-01T23:45:19.428Z,1.90
2018-04-01T23:47:46.936Z,2.10
2018-04-01T23:50:14.442Z,2.20
2018-04-01T23:52:41.956Z,2.40
2018-04-01T23:55:09.458Z,2.60
2018-04-01T23:57:37.001Z,2.90
